sensor_id;sensor_type;location;lat;lon;timestamp;pressure;altitude;pressure_sealevel;temperature;humidity
60852;BME280;48553;50.766;2.900;2023-04-15T00:02:29;99955.16;;;10.30;73.19
60852;BME280;48553;50.766;2.900;2023-04-15T00:05:30;99955.00;;;10.26;73.69
60852;BME280;48553;50.766;2.900;2023-04-15T00:08:31;99963.59;;;10.24;73.80
60852;BME280;48553;50.766;2.900;2023-04-15T00:11:32;99960.16;;;10.28;73.86
60852;BME280;48553;50.766;2.900;2023-04-15T00:14:33;99957.69;;;10.22;73.94
60852;BME280;48553;50.766;2.900;2023-04-15T00:17:35;99964.28;;;10.21;74.05
60852;BME280;48553;50.766;2.900;2023-04-15T00:20:38;99960.75;;;10.21;74.03
60852;BME280;48553;50.766;2.900;2023-04-15T00:23:38;99962.72;;;10.20;74.37
60852;BME280;48553;50.766;2.900;2023-04-15T00:26:38;99959.19;;;10.20;74.35
60852;BME280;48553;50.766;2.900;2023-04-15T00:29:39;99953.72;;;10.20;74.18
60852;BME280;48553;50.766;2.900;2023-04-15T00:32:39;99952.88;;;10.19;74.30
60852;BME280;48553;50.766;2.900;2023-04-15T00:35:41;99948.91;;;10.17;74.40
60852;BME280;48553;50.766;2.900;2023-04-15T00:38:42;99947.34;;;10.16;74.74
60852;BME280;48553;50.766;2.900;2023-04-15T00:41:43;99944.16;;;10.14;74.90
60852;BME280;48553;50.766;2.900;2023-04-15T00:44:44;99956.69;;;10.15;74.74
60852;BME280;48553;50.766;2.900;2023-04-15T00:47:45;99958.19;;;10.12;75.00
60852;BME280;48553;50.766;2.900;2023-04-15T00:50:45;99955.13;;;10.14;75.06
60852;BME280;48553;50.766;2.900;2023-04-15T00:53:46;99949.19;;;10.12;75.25
60852;BME280;48553;50.766;2.900;2023-04-15T00:56:46;99954.66;;;10.12;75.07
60852;BME280;48553;50.766;2.900;2023-04-15T00:59:47;99950.34;;;10.11;75.28
60852;BME280;48553;50.766;2.900;2023-04-15T01:02:49;99947.97;;;10.09;75.33
60852;BME280;48553;50.766;2.900;2023-04-15T01:05:50;99946.78;;;10.10;75.32
60852;BME280;48553;50.766;2.900;2023-04-15T01:08:58;99951.03;;;10.08;75.44
60852;BME280;48553;50.766;2.900;2023-04-15T01:11:58;99944.78;;;10.07;75.54
60852;BME280;48553;50.766;2.900;2023-04-15T01:14:59;99948.66;;;10.06;75.58
60852;BME280;48553;50.766;2.900;2023-04-15T01:18:01;99945.47;;;10.04;75.69
60852;BME280;48553;50.766;2.900;2023-04-15T01:21:03;99939.19;;;10.03;75.91
60852;BME280;48553;50.766;2.900;2023-04-15T01:24:08;99946.16;;;10.01;75.91
60852;BME280;48553;50.766;2.900;2023-04-15T01:27:09;99949.00;;;10.04;75.78
60852;BME280;48553;50.766;2.900;2023-04-15T01:30:10;99951.31;;;10.02;75.90
60852;BME280;48553;50.766;2.900;2023-04-15T01:33:11;99942.31;;;10.02;75.86
60852;BME280;48553;50.766;2.900;2023-04-15T01:36:11;99950.84;;;10.00;76.06
60852;BME280;48553;50.766;2.900;2023-04-15T01:39:12;99948.47;;;9.99;76.17
60852;BME280;48553;50.766;2.900;2023-04-15T01:42:12;99957.50;;;9.99;76.03
60852;BME280;48553;50.766;2.900;2023-04-15T01:45:13;99956.22;;;9.97;76.20
60852;BME280;48553;50.766;2.900;2023-04-15T01:48:13;99959.78;;;9.97;76.25
60852;BME280;48553;50.766;2.900;2023-04-15T01:51:14;99963.19;;;9.94;76.58
60852;BME280;48553;50.766;2.900;2023-04-15T01:54:14;99965.59;;;9.96;76.29
60852;BME280;48553;50.766;2.900;2023-04-15T01:57:15;99954.53;;;9.92;76.97
60852;BME280;48553;50.766;2.900;2023-04-15T02:00:15;99965.50;;;9.92;76.79
60852;BME280;48553;50.766;2.900;2023-04-15T02:03:17;99975.31;;;9.93;76.68
60852;BME280;48553;50.766;2.900;2023-04-15T02:06:18;99976.44;;;9.92;76.68
60852;BME280;48553;50.766;2.900;2023-04-15T02:09:18;99974.06;;;9.91;76.78
60852;BME280;48553;50.766;2.900;2023-04-15T02:12:19;99971.66;;;9.89;77.14
60852;BME280;48553;50.766;2.900;2023-04-15T02:15:19;99981.03;;;9.88;77.09
60852;BME280;48553;50.766;2.900;2023-04-15T02:18:19;99977.50;;;9.88;77.45
60852;BME280;48553;50.766;2.900;2023-04-15T02:21:20;99993.91;;;9.88;77.43
60852;BME280;48553;50.766;2.900;2023-04-15T02:24:21;99998.97;;;9.86;77.75
60852;BME280;48553;50.766;2.900;2023-04-15T02:27:22;99999.38;;;9.88;77.48
60852;BME280;48553;50.766;2.900;2023-04-15T02:30:22;100007.50;;;9.84;77.87
60852;BME280;48553;50.766;2.900;2023-04-15T02:33:24;100002.03;;;9.84;77.73
60852;BME280;48553;50.766;2.900;2023-04-15T02:39:29;100014.56;;;9.85;78.08
60852;BME280;48553;50.766;2.900;2023-04-15T02:42:30;100025.06;;;9.83;78.07
60852;BME280;48553;50.766;2.900;2023-04-15T02:45:31;100014.81;;;9.80;78.21
60852;BME280;48553;50.766;2.900;2023-04-15T02:48:32;100015.63;;;9.80;78.26
60852;BME280;48553;50.766;2.900;2023-04-15T02:51:32;100023.47;;;9.82;78.47
60852;BME280;48553;50.766;2.900;2023-04-15T02:54:32;100023.75;;;9.77;78.91
60852;BME280;48553;50.766;2.900;2023-04-15T02:57:33;100029.09;;;9.73;78.88
60852;BME280;48553;50.766;2.900;2023-04-15T03:00:36;100037.75;;;9.75;78.93
60852;BME280;48553;50.766;2.900;2023-04-15T03:03:37;100040.84;;;9.74;79.15
60852;BME280;48553;50.766;2.900;2023-04-15T03:06:37;100045.50;;;9.73;79.15
60852;BME280;48553;50.766;2.900;2023-04-15T03:09:37;100044.72;;;9.73;79.04
60852;BME280;48553;50.766;2.900;2023-04-15T03:12:40;100054.88;;;9.72;79.26
60852;BME280;48553;50.766;2.900;2023-04-15T03:15:40;100048.16;;;9.70;79.61
60852;BME280;48553;50.766;2.900;2023-04-15T03:18:41;100049.41;;;9.72;79.08
60852;BME280;48553;50.766;2.900;2023-04-15T03:21:41;100047.81;;;9.71;79.15
60852;BME280;48553;50.766;2.900;2023-04-15T03:24:41;100068.91;;;9.71;79.25
60852;BME280;48553;50.766;2.900;2023-04-15T03:27:42;100070.06;;;9.70;79.17
60852;BME280;48553;50.766;2.900;2023-04-15T03:30:42;100068.00;;;9.67;79.25
60852;BME280;48553;50.766;2.900;2023-04-15T03:33:43;100073.00;;;9.65;79.54
60852;BME280;48553;50.766;2.900;2023-04-15T03:36:43;100076.56;;;9.65;79.34
60852;BME280;48553;50.766;2.900;2023-04-15T03:39:44;100069.16;;;9.66;79.21
60852;BME280;48553;50.766;2.900;2023-04-15T03:42:44;100083.50;;;9.62;79.65
60852;BME280;48553;50.766;2.900;2023-04-15T03:45:45;100078.41;;;9.61;79.67
60852;BME280;48553;50.766;2.900;2023-04-15T03:48:46;100082.72;;;9.62;79.61
60852;BME280;48553;50.766;2.900;2023-04-15T03:51:46;100084.66;;;9.61;79.68
60852;BME280;48553;50.766;2.900;2023-04-15T03:54:47;100085.00;;;9.60;79.70
60852;BME280;48553;50.766;2.900;2023-04-15T03:57:47;100091.25;;;9.60;79.70
60852;BME280;48553;50.766;2.900;2023-04-15T04:00:47;100082.97;;;9.57;80.00
60852;BME280;48553;50.766;2.900;2023-04-15T04:03:48;100083.41;;;9.59;79.78
60852;BME280;48553;50.766;2.900;2023-04-15T04:06:48;100090.84;;;9.58;79.63
60852;BME280;48553;50.766;2.900;2023-04-15T04:09:49;100091.97;;;9.57;79.74
60852;BME280;48553;50.766;2.900;2023-04-15T04:12:49;100101.31;;;9.56;79.79
60852;BME280;48553;50.766;2.900;2023-04-15T04:15:50;100107.13;;;9.55;79.88
60852;BME280;48553;50.766;2.900;2023-04-15T04:18:50;100105.97;;;9.56;79.85
60852;BME280;48553;50.766;2.900;2023-04-15T04:21:51;100112.94;;;9.53;80.04
60852;BME280;48553;50.766;2.900;2023-04-15T04:24:51;100120.47;;;9.56;79.89
60852;BME280;48553;50.766;2.900;2023-04-15T04:27:52;100116.03;;;9.52;80.27
60852;BME280;48553;50.766;2.900;2023-04-15T04:30:52;100124.22;;;9.52;80.36
60852;BME280;48553;50.766;2.900;2023-04-15T04:33:53;100124.91;;;9.49;80.31
60852;BME280;48553;50.766;2.900;2023-04-15T04:36:53;100130.75;;;9.47;80.24
60852;BME280;48553;50.766;2.900;2023-04-15T04:39:53;100130.03;;;9.50;80.33
60852;BME280;48553;50.766;2.900;2023-04-15T04:42:54;100133.56;;;9.51;80.16
60852;BME280;48553;50.766;2.900;2023-04-15T04:45:55;100148.72;;;9.48;80.47
60852;BME280;48553;50.766;2.900;2023-04-15T04:48:55;100148.72;;;9.48;80.59
60852;BME280;48553;50.766;2.900;2023-04-15T04:51:56;100155.34;;;9.47;80.84
60852;BME280;48553;50.766;2.900;2023-04-15T04:54:56;100151.00;;;9.46;80.84
60852;BME280;48553;50.766;2.900;2023-04-15T04:57:57;100161.94;;;9.46;80.56
60852;BME280;48553;50.766;2.900;2023-04-15T05:00:57;100162.28;;;9.45;80.86
60852;BME280;48553;50.766;2.900;2023-04-15T05:03:58;100176.66;;;9.41;80.94
60852;BME280;48553;50.766;2.900;2023-04-15T05:06:59;100174.84;;;9.46;80.93
60852;BME280;48553;50.766;2.900;2023-04-15T05:09:59;100175.97;;;9.45;80.93
60852;BME280;48553;50.766;2.900;2023-04-15T05:13:00;100191.94;;;9.43;81.10
60852;BME280;48553;50.766;2.900;2023-04-15T05:16:01;100195.94;;;9.45;81.05
60852;BME280;48553;50.766;2.900;2023-04-15T05:19:01;100190.09;;;9.47;80.88
60852;BME280;48553;50.766;2.900;2023-04-15T05:22:02;100194.69;;;9.43;81.10
60852;BME280;48553;50.766;2.900;2023-04-15T05:25:03;100209.81;;;9.40;81.11
60852;BME280;48553;50.766;2.900;2023-04-15T05:28:03;100210.25;;;9.42;81.18
60852;BME280;48553;50.766;2.900;2023-04-15T05:31:04;100220.75;;;9.40;81.13
60852;BME280;48553;50.766;2.900;2023-04-15T05:34:05;100220.88;;;9.44;80.79
60852;BME280;48553;50.766;2.900;2023-04-15T05:37:06;100236.81;;;9.41;81.06
60852;BME280;48553;50.766;2.900;2023-04-15T05:40:07;100229.78;;;9.40;81.18
60852;BME280;48553;50.766;2.900;2023-04-15T05:43:09;100241.16;;;9.43;81.10
60852;BME280;48553;50.766;2.900;2023-04-15T05:46:10;100239.56;;;9.41;81.18
60852;BME280;48553;50.766;2.900;2023-04-15T05:49:10;100249.72;;;9.41;81.17
60852;BME280;48553;50.766;2.900;2023-04-15T05:52:11;100256.28;;;9.40;81.22
60852;BME280;48553;50.766;2.900;2023-04-15T05:55:11;100255.50;;;9.39;81.47
60852;BME280;48553;50.766;2.900;2023-04-15T05:58:12;100272.72;;;9.40;81.50
60852;BME280;48553;50.766;2.900;2023-04-15T06:01:12;100273.84;;;9.39;81.48
60852;BME280;48553;50.766;2.900;2023-04-15T06:04:12;100273.41;;;9.37;81.68
60852;BME280;48553;50.766;2.900;2023-04-15T06:07:13;100280.13;;;9.39;81.63
60852;BME280;48553;50.766;2.900;2023-04-15T06:10:14;100291.53;;;9.41;81.51
60852;BME280;48553;50.766;2.900;2023-04-15T06:13:15;100296.19;;;9.41;81.54
60852;BME280;48553;50.766;2.900;2023-04-15T06:16:16;100300.53;;;9.42;81.96
60852;BME280;48553;50.766;2.900;2023-04-15T06:19:16;100300.53;;;9.42;81.77
60852;BME280;48553;50.766;2.900;2023-04-15T06:22:17;100304.06;;;9.43;81.83
60852;BME280;48553;50.766;2.900;2023-04-15T06:25:18;100316.94;;;9.42;81.75
60852;BME280;48553;50.766;2.900;2023-04-15T06:28:18;100321.28;;;9.43;82.16
60852;BME280;48553;50.766;2.900;2023-04-15T06:31:18;100319.00;;;9.45;81.90
60852;BME280;48553;50.766;2.900;2023-04-15T06:34:19;100328.00;;;9.46;81.91
60852;BME280;48553;50.766;2.900;2023-04-15T06:37:19;100334.97;;;9.43;82.15
60852;BME280;48553;50.766;2.900;2023-04-15T06:40:20;100340.88;;;9.45;82.13
60852;BME280;48553;50.766;2.900;2023-04-15T06:43:20;100344.88;;;9.48;82.11
60852;BME280;48553;50.766;2.900;2023-04-15T06:46:21;100351.16;;;9.48;82.17
60852;BME280;48553;50.766;2.900;2023-04-15T06:49:22;100360.16;;;9.49;81.97
60852;BME280;48553;50.766;2.900;2023-04-15T06:52:22;100362.09;;;9.48;82.11
60852;BME280;48553;50.766;2.900;2023-04-15T06:55:23;100371.56;;;9.51;81.97
60852;BME280;48553;50.766;2.900;2023-04-15T06:58:23;100367.22;;;9.50;82.24
60852;BME280;48553;50.766;2.900;2023-04-15T07:01:23;100372.34;;;9.51;82.14
60852;BME280;48553;50.766;2.900;2023-04-15T07:04:24;100381.69;;;9.50;82.12
60852;BME280;48553;50.766;2.900;2023-04-15T07:07:25;100389.13;;;9.50;82.53
60852;BME280;48553;50.766;2.900;2023-04-15T07:10:25;100396.63;;;9.53;82.15
60852;BME280;48553;50.766;2.900;2023-04-15T07:13:26;100397.44;;;9.53;82.30
60852;BME280;48553;50.766;2.900;2023-04-15T07:16:26;100401.00;;;9.54;82.38
60852;BME280;48553;50.766;2.900;2023-04-15T07:19:27;100408.38;;;9.53;82.32
60852;BME280;48553;50.766;2.900;2023-04-15T07:22:27;100421.25;;;9.53;82.57
60852;BME280;48553;50.766;2.900;2023-04-15T07:25:28;100419.78;;;9.55;82.45
60852;BME280;48553;50.766;2.900;2023-04-15T07:28:28;100428.44;;;9.57;82.56
60852;BME280;48553;50.766;2.900;2023-04-15T07:31:29;100443.41;;;9.60;82.41
60852;BME280;48553;50.766;2.900;2023-04-15T07:34:29;100447.28;;;9.59;82.78
60852;BME280;48553;50.766;2.900;2023-04-15T07:37:29;100449.34;;;9.62;82.61
60852;BME280;48553;50.766;2.900;2023-04-15T07:40:30;100461.88;;;9.63;82.56
60852;BME280;48553;50.766;2.900;2023-04-15T07:43:31;100467.00;;;9.65;82.56
60852;BME280;48553;50.766;2.900;2023-04-15T07:46:31;100469.41;;;9.66;82.57
60852;BME280;48553;50.766;2.900;2023-04-15T07:49:32;100480.69;;;9.65;82.49
60852;BME280;48553;50.766;2.900;2023-04-15T07:52:32;100485.50;;;9.68;82.49
60852;BME280;48553;50.766;2.900;2023-04-15T07:55:38;100488.72;;;9.70;82.48
60852;BME280;48553;50.766;2.900;2023-04-15T07:58:39;100505.56;;;9.72;82.73
60852;BME280;48553;50.766;2.900;2023-04-15T08:01:40;100504.44;;;9.73;82.66
60852;BME280;48553;50.766;2.900;2023-04-15T08:04:41;100506.03;;;9.74;82.62
60852;BME280;48553;50.766;2.900;2023-04-15T08:07:42;100503.66;;;9.72;82.53
60852;BME280;48553;50.766;2.900;2023-04-15T08:10:42;100519.25;;;9.72;82.41
60852;BME280;48553;50.766;2.900;2023-04-15T08:13:43;100524.72;;;9.72;82.43
60852;BME280;48553;50.766;2.900;2023-04-15T08:16:43;100545.16;;;9.74;82.27
60852;BME280;48553;50.766;2.900;2023-04-15T08:19:43;100546.44;;;9.77;82.25
60852;BME280;48553;50.766;2.900;2023-04-15T08:22:44;100549.16;;;9.77;82.25
60852;BME280;48553;50.766;2.900;2023-04-15T08:25:45;100543.00;;;9.80;81.91
60852;BME280;48553;50.766;2.900;2023-04-15T08:28:46;100549.28;;;9.80;82.47
60852;BME280;48553;50.766;2.900;2023-04-15T08:31:47;100550.53;;;9.83;82.60
60852;BME280;48553;50.766;2.900;2023-04-15T08:34:47;100556.50;;;9.85;82.96
60852;BME280;48553;50.766;2.900;2023-04-15T08:37:48;100571.31;;;9.84;83.12
60852;BME280;48553;50.766;2.900;2023-04-15T08:40:48;100566.31;;;9.86;83.08
60852;BME280;48553;50.766;2.900;2023-04-15T08:46:55;100585.94;;;9.88;83.19
60852;BME280;48553;50.766;2.900;2023-04-15T08:49:57;100586.53;;;9.94;82.71
60852;BME280;48553;50.766;2.900;2023-04-15T08:52:58;100592.94;;;9.98;82.53
60852;BME280;48553;50.766;2.900;2023-04-15T08:56:03;100593.88;;;10.02;82.56
60852;BME280;48553;50.766;2.900;2023-04-15T08:59:05;100614.41;;;10.08;82.02
60852;BME280;48553;50.766;2.900;2023-04-15T09:02:07;100617.28;;;10.12;82.19
60852;BME280;48553;50.766;2.900;2023-04-15T09:05:08;100621.78;;;10.16;81.97
60852;BME280;48553;50.766;2.900;2023-04-15T09:08:09;100627.84;;;10.22;81.56
60852;BME280;48553;50.766;2.900;2023-04-15T09:11:09;100636.66;;;10.28;81.52
60852;BME280;48553;50.766;2.900;2023-04-15T09:14:10;100658.06;;;10.34;81.46
60852;BME280;48553;50.766;2.900;2023-04-15T09:17:11;100663.56;;;10.47;81.01
60852;BME280;48553;50.766;2.900;2023-04-15T09:20:15;100675.16;;;10.64;80.84
60852;BME280;48553;50.766;2.900;2023-04-15T09:23:15;100683.31;;;10.73;80.86
60852;BME280;48553;50.766;2.900;2023-04-15T09:26:16;100687.78;;;10.78;80.33
60852;BME280;48553;50.766;2.900;2023-04-15T09:29:17;100688.38;;;10.83;80.30
60852;BME280;48553;50.766;2.900;2023-04-15T09:32:18;100694.66;;;10.96;80.34
60852;BME280;48553;50.766;2.900;2023-04-15T09:35:20;100698.00;;;11.14;80.92
60852;BME280;48553;50.766;2.900;2023-04-15T09:38:21;100693.13;;;11.32;80.85
60852;BME280;48553;50.766;2.900;2023-04-15T09:41:22;100705.69;;;11.45;80.57
60852;BME280;48553;50.766;2.900;2023-04-15T09:44:24;100702.94;;;11.58;80.67
60852;BME280;48553;50.766;2.900;2023-04-15T09:47:29;100709.47;;;11.65;80.93
60852;BME280;48553;50.766;2.900;2023-04-15T09:50:30;100716.78;;;11.86;80.96
60852;BME280;48553;50.766;2.900;2023-04-15T09:53:40;100714.84;;;11.99;80.04
60852;BME280;48553;50.766;2.900;2023-04-15T09:56:40;100721.22;;;12.15;80.13
60852;BME280;48553;50.766;2.900;2023-04-15T09:59:41;100722.94;;;12.20;80.83
60852;BME280;48553;50.766;2.900;2023-04-15T10:02:42;100725.09;;;12.26;79.94
60852;BME280;48553;50.766;2.900;2023-04-15T10:05:42;100734.69;;;12.32;79.88
60852;BME280;48553;50.766;2.900;2023-04-15T10:08:43;100730.81;;;12.33;80.08
60852;BME280;48553;50.766;2.900;2023-04-15T10:11:46;100736.75;;;12.36;79.85
60852;BME280;48553;50.766;2.900;2023-04-15T10:14:52;100732.13;;;12.40;79.73
60852;BME280;48553;50.766;2.900;2023-04-15T10:17:57;100728.44;;;12.48;79.61
60852;BME280;48553;50.766;2.900;2023-04-15T10:21:00;100739.66;;;12.55;79.50
60852;BME280;48553;50.766;2.900;2023-04-15T10:24:01;100735.50;;;12.61;79.34
60852;BME280;48553;50.766;2.900;2023-04-15T10:27:02;100739.06;;;12.62;78.71
60852;BME280;48553;50.766;2.900;2023-04-15T10:30:05;100734.19;;;12.71;78.57
60852;BME280;48553;50.766;2.900;2023-04-15T10:33:07;100734.31;;;12.74;78.25
60852;BME280;48553;50.766;2.900;2023-04-15T10:36:09;100736.81;;;12.80;77.89
60852;BME280;48553;50.766;2.900;2023-04-15T10:42:35;100757.19;;;13.07;76.82
60852;BME280;48553;50.766;2.900;2023-04-15T10:45:36;100757.91;;;13.20;76.81
60852;BME280;48553;50.766;2.900;2023-04-15T10:48:36;100761.91;;;13.22;76.82
60852;BME280;48553;50.766;2.900;2023-04-15T10:51:40;100758.22;;;13.30;76.28
60852;BME280;48553;50.766;2.900;2023-04-15T10:54:41;100763.81;;;13.34;76.18
60852;BME280;48553;50.766;2.900;2023-04-15T10:57:42;100761.25;;;13.41;75.91
60852;BME280;48553;50.766;2.900;2023-04-15T11:00:49;100775.97;;;13.49;75.91
60852;BME280;48553;50.766;2.900;2023-04-15T11:03:54;100775.13;;;13.61;75.97
60852;BME280;48553;50.766;2.900;2023-04-15T11:07:05;100769.66;;;13.80;75.62
60852;BME280;48553;50.766;2.900;2023-04-15T11:13:25;100787.75;;;14.13;75.43
60852;BME280;48553;50.766;2.900;2023-04-15T11:16:27;100810.25;;;14.15;75.25
60852;BME280;48553;50.766;2.900;2023-04-15T11:19:35;100802.16;;;14.22;76.01
60852;BME280;48553;50.766;2.900;2023-04-15T11:22:35;100802.81;;;14.35;75.94
60852;BME280;48553;50.766;2.900;2023-04-15T11:25:36;100807.81;;;14.49;75.73
60852;BME280;48553;50.766;2.900;2023-04-15T11:28:39;100825.19;;;14.49;75.23
60852;BME280;48553;50.766;2.900;2023-04-15T11:31:40;100820.31;;;14.58;74.58
60852;BME280;48553;50.766;2.900;2023-04-15T11:34:40;100828.53;;;14.74;74.48
60852;BME280;48553;50.766;2.900;2023-04-15T11:37:41;100834.75;;;14.91;73.58
60852;BME280;48553;50.766;2.900;2023-04-15T11:40:42;100830.25;;;15.02;73.79
60852;BME280;48553;50.766;2.900;2023-04-15T11:43:43;100834.78;;;15.10;73.79
60852;BME280;48553;50.766;2.900;2023-04-15T11:46:43;100845.41;;;15.31;74.33
60852;BME280;48553;50.766;2.900;2023-04-15T11:49:44;100854.03;;;15.49;74.59
60852;BME280;48553;50.766;2.900;2023-04-15T11:52:57;100851.59;;;15.67;74.41
60852;BME280;48553;50.766;2.900;2023-04-15T11:55:58;100861.31;;;15.80;74.31
60852;BME280;48553;50.766;2.900;2023-04-15T11:58:58;100864.34;;;15.95;73.05
60852;BME280;48553;50.766;2.900;2023-04-15T12:01:59;100866.09;;;16.06;72.96
60852;BME280;48553;50.766;2.900;2023-04-15T12:05:03;100858.22;;;16.08;72.74
60852;BME280;48553;50.766;2.900;2023-04-15T12:08:04;100873.81;;;16.20;72.55
60852;BME280;48553;50.766;2.900;2023-04-15T12:11:05;100873.72;;;16.40;71.79
60852;BME280;48553;50.766;2.900;2023-04-15T12:14:15;100884.84;;;16.43;72.00
60852;BME280;48553;50.766;2.900;2023-04-15T12:17:15;100890.91;;;16.53;72.46
60852;BME280;48553;50.766;2.900;2023-04-15T12:20:25;100889.41;;;16.59;71.49
60852;BME280;48553;50.766;2.900;2023-04-15T12:23:26;100897.06;;;16.69;70.96
60852;BME280;48553;50.766;2.900;2023-04-15T12:26:47;100915.91;;;16.86;71.40
60852;BME280;48553;50.766;2.900;2023-04-15T12:29:48;100913.16;;;16.86;71.19
60852;BME280;48553;50.766;2.900;2023-04-15T12:32:48;100909.97;;;16.84;69.70
60852;BME280;48553;50.766;2.900;2023-04-15T12:35:51;100930.34;;;16.99;70.21
60852;BME280;48553;50.766;2.900;2023-04-15T12:38:51;100924.91;;;17.06;70.58
60852;BME280;48553;50.766;2.900;2023-04-15T12:41:52;100925.84;;;17.18;70.38
60852;BME280;48553;50.766;2.900;2023-04-15T12:44:52;100938.25;;;17.31;69.66
60852;BME280;48553;50.766;2.900;2023-04-15T12:47:52;100933.56;;;17.35;69.04
60852;BME280;48553;50.766;2.900;2023-04-15T12:50:53;100936.84;;;17.44;68.83
60852;BME280;48553;50.766;2.900;2023-04-15T12:53:53;100936.50;;;17.49;68.29
60852;BME280;48553;50.766;2.900;2023-04-15T12:56:54;100936.91;;;17.51;68.76
60852;BME280;48553;50.766;2.900;2023-04-15T12:59:55;100946.09;;;17.59;67.80
60852;BME280;48553;50.766;2.900;2023-04-15T13:02:55;100945.38;;;17.66;67.48
60852;BME280;48553;50.766;2.900;2023-04-15T13:05:56;100960.31;;;17.54;67.22
60852;BME280;48553;50.766;2.900;2023-04-15T13:08:57;100965.13;;;17.61;67.00
60852;BME280;48553;50.766;2.900;2023-04-15T13:11:58;100968.34;;;17.66;67.05
60852;BME280;48553;50.766;2.900;2023-04-15T13:14:58;100977.50;;;17.67;67.09
60852;BME280;48553;50.766;2.900;2023-04-15T13:17:59;100977.13;;;17.72;66.73
60852;BME280;48553;50.766;2.900;2023-04-15T13:21:00;100979.50;;;17.70;66.84
60852;BME280;48553;50.766;2.900;2023-04-15T13:24:01;100989.72;;;17.62;67.52
60852;BME280;48553;50.766;2.900;2023-04-15T13:27:01;100978.22;;;17.64;66.54
60852;BME280;48553;50.766;2.900;2023-04-15T13:30:04;100992.66;;;17.80;65.88
60852;BME280;48553;50.766;2.900;2023-04-15T13:33:05;100990.34;;;17.82;65.92
60852;BME280;48553;50.766;2.900;2023-04-15T13:36:05;100987.63;;;17.86;65.44
60852;BME280;48553;50.766;2.900;2023-04-15T13:39:06;100995.97;;;17.89;65.05
60852;BME280;48553;50.766;2.900;2023-04-15T13:42:06;101013.44;;;17.93;64.91
60852;BME280;48553;50.766;2.900;2023-04-15T13:45:07;101010.34;;;17.99;65.14
60852;BME280;48553;50.766;2.900;2023-04-15T13:48:08;101013.44;;;17.93;63.71
60852;BME280;48553;50.766;2.900;2023-04-15T13:51:08;101039.59;;;17.96;64.49
60852;BME280;48553;50.766;2.900;2023-04-15T13:54:09;101029.34;;;18.00;64.06
60852;BME280;48553;50.766;2.900;2023-04-15T13:57:09;101036.03;;;17.95;64.47
60852;BME280;48553;50.766;2.900;2023-04-15T14:00:10;101039.66;;;18.00;63.59
60852;BME280;48553;50.766;2.900;2023-04-15T14:03:11;101038.75;;;17.88;64.72
60852;BME280;48553;50.766;2.900;2023-04-15T14:06:11;101048.75;;;17.97;64.10
60852;BME280;48553;50.766;2.900;2023-04-15T14:09:11;101051.53;;;18.00;63.98
60852;BME280;48553;50.766;2.900;2023-04-15T14:12:12;101058.28;;;17.99;64.56
60852;BME280;48553;50.766;2.900;2023-04-15T14:15:12;101063.03;;;17.99;64.12
60852;BME280;48553;50.766;2.900;2023-04-15T14:18:13;101068.97;;;18.01;64.59
60852;BME280;48553;50.766;2.900;2023-04-15T14:21:14;101081.25;;;18.00;64.89
60852;BME280;48553;50.766;2.900;2023-04-15T14:24:14;101087.81;;;17.84;64.62
60852;BME280;48553;50.766;2.900;2023-04-15T14:27:14;101089.16;;;17.98;63.73
60852;BME280;48553;50.766;2.900;2023-04-15T14:30:16;101099.84;;;17.95;63.00
60852;BME280;48553;50.766;2.900;2023-04-15T14:33:16;101112.91;;;17.95;63.67
60852;BME280;48553;50.766;2.900;2023-04-15T14:36:17;101118.81;;;17.93;63.14
60852;BME280;48553;50.766;2.900;2023-04-15T14:39:17;101107.22;;;17.84;63.85
60852;BME280;48553;50.766;2.900;2023-04-15T14:42:18;101127.06;;;17.86;63.36
60852;BME280;48553;50.766;2.900;2023-04-15T14:45:18;101126.19;;;17.82;62.99
60852;BME280;48553;50.766;2.900;2023-04-15T14:48:19;101128.53;;;17.80;63.68
60852;BME280;48553;50.766;2.900;2023-04-15T14:51:19;101135.09;;;17.68;64.13
60852;BME280;48553;50.766;2.900;2023-04-15T14:54:19;101137.78;;;17.61;63.52
60852;BME280;48553;50.766;2.900;2023-04-15T14:57:20;101146.34;;;17.52;63.39
60852;BME280;48553;50.766;2.900;2023-04-15T15:00:20;101150.09;;;17.64;61.45
60852;BME280;48553;50.766;2.900;2023-04-15T15:03:22;101158.50;;;17.71;62.50
60852;BME280;48553;50.766;2.900;2023-04-15T15:06:22;101161.59;;;17.66;62.85
60852;BME280;48553;50.766;2.900;2023-04-15T15:09:23;101170.69;;;17.63;62.92
60852;BME280;48553;50.766;2.900;2023-04-15T15:12:24;101179.25;;;17.54;62.95
60852;BME280;48553;50.766;2.900;2023-04-15T15:15:24;101174.81;;;17.49;62.90
60852;BME280;48553;50.766;2.900;2023-04-15T15:18:25;101183.94;;;17.50;62.68
60852;BME280;48553;50.766;2.900;2023-04-15T15:21:25;101190.16;;;17.43;61.73
60852;BME280;48553;50.766;2.900;2023-04-15T15:24:26;101188.88;;;17.37;62.90
60852;BME280;48553;50.766;2.900;2023-04-15T15:27:26;101203.44;;;17.30;62.41
60852;BME280;48553;50.766;2.900;2023-04-15T15:30:27;101201.63;;;17.19;62.62
60852;BME280;48553;50.766;2.900;2023-04-15T15:33:27;101212.56;;;17.08;63.11
60852;BME280;48553;50.766;2.900;2023-04-15T15:36:29;101211.59;;;17.00;62.38
60852;BME280;48553;50.766;2.900;2023-04-15T15:39:30;101215.91;;;16.98;61.92
60852;BME280;48553;50.766;2.900;2023-04-15T15:42:31;101223.31;;;16.90;62.28
60852;BME280;48553;50.766;2.900;2023-04-15T15:45:31;101226.00;;;16.86;62.45
60852;BME280;48553;50.766;2.900;2023-04-15T15:48:32;101232.31;;;16.87;59.85
60852;BME280;48553;50.766;2.900;2023-04-15T15:51:32;101235.41;;;16.82;60.51
60852;BME280;48553;50.766;2.900;2023-04-15T15:54:33;101233.25;;;16.75;61.66
60852;BME280;48553;50.766;2.900;2023-04-15T15:57:34;101243.31;;;16.64;61.90
60852;BME280;48553;50.766;2.900;2023-04-15T16:00:34;101250.69;;;16.56;62.00
60852;BME280;48553;50.766;2.900;2023-04-15T16:03:34;101255.78;;;16.54;61.25
60852;BME280;48553;50.766;2.900;2023-04-15T16:06:35;101263.56;;;16.48;61.87